Springville, IA (52336)

2:05 PM CDT on March 28, 2017 (GMT -0500)
Whittier | | Change Station

Elev 885 ft 42.08 °N, 91.46 °W | Updated 13 seconds ago

Overcast
Overcast
51.5 °F
Feels Like 51.5 °F
N
0.0
Wind Variable Wind from SSE
Gusts 1.2 mph

Today
High -- | Low -- °F
--% Chance of Precip.
Yesterday
High -- | Low -- °F
Precip. -- in
Pressure 30.13 in
Visibility 10.0 miles
Clouds Mostly Cloudy 2500 ft
Mostly Cloudy 3000 ft
Overcast 3600 ft
Dew Point 45 °F
Humidity 79%
Rainfall 0.00 in
Snow Depth Not available.
6:54 AM 7:27 PM
New Moon, 1% visible
METAR KMXO 281855Z AUTO 04009KT 10SM BKN025 BKN030 OVC036 11/05 A3013 RMK AO2
Pressure 30.13 in
Visibility 10.0 miles
Clouds Mostly Cloudy 2500 ft
Mostly Cloudy 3000 ft
Overcast 3600 ft
Dew Point 45 °F
Humidity 79%
Rainfall 0.00 in
Snow Depth Not available.
6:54 AM 7:27 PM
New Moon, 1% visible
METAR KMXO 281855Z AUTO 04009KT 10SM BKN025 BKN030 OVC036 11/05 A3013 RMK AO2

Get Severe Weather Alerts

Thanks for signing up!

Be on the lookout for a verification email in your inbox.

You'll start receiving the daily forecast at 8 AM.

×

10-Day Weather Forecast

Almanac

Astronomy

Mar. 28, 2017 Rise Set
Actual Time
Civil Twilight
Nautical Twilight
Astronomical Twilight
Moon
Length of Visible Light
Length of Day
Tomorrow will be .
, % of the Moon is Illuminated

Today's Extremes

State Highs State Lows

Community

WunderPhotos

Upload Photos

1,962,540 photos uploaded!

WunderBlog® & News

Nearby

Air Quality

  Air Quality AQ Index Pollutant
Not available.

Snow Depth

Station Depth Elevation

Earthquake Activity

City Distance Mag. Time & Date
Minimum magnitude displayed is 2.5.

Earthquake Activity

City Distance Mag. Time & Date
Minimum magnitude displayed is 2.5.

Coastal Water Temperatures

Place Temperature

Stations

Nearby Weather Stations

Station Location Temp. Windchill Dew Point Humidity Wind Precip. Elev Updated Type
                   

Watches & Warnings

There are currently no watches in effect.